createdAt,value
2023-04-11T00:03:12.713Z,2.72
2023-04-11T00:09:16.907Z,2.50
2023-04-11T00:15:24.180Z,2.67
2023-04-11T00:21:28.915Z,2.17
2023-04-11T00:27:32.601Z,2.28
2023-04-11T00:33:35.988Z,2.08
2023-04-11T00:39:40.704Z,2.55
2023-04-11T00:45:44.270Z,2.28
2023-04-11T00:51:47.679Z,3.15
2023-04-11T00:57:54.012Z,2.40
2023-04-11T01:04:01.050Z,2.53
2023-04-11T01:10:05.882Z,1.95
2023-04-11T01:16:11.447Z,2.05
2023-04-11T01:22:17.979Z,1.98
2023-04-11T01:28:23.094Z,1.95
2023-04-11T01:34:28.583Z,2.10
2023-04-11T01:40:32.859Z,2.30
2023-04-11T01:46:37.721Z,1.75
2023-04-11T01:52:41.108Z,2.15
2023-04-11T01:58:44.679Z,1.55
2023-04-11T02:04:49.623Z,1.40
2023-04-11T02:10:53.296Z,1.50
2023-04-11T02:16:57.887Z,1.63
2023-04-11T02:23:04.471Z,1.52
2023-04-11T02:29:08.254Z,1.52
2023-04-11T02:35:12.070Z,1.50
2023-04-11T02:41:16.815Z,1.20
2023-04-11T02:47:20.231Z,1.40
2023-04-11T02:53:23.654Z,1.38
2023-04-11T02:59:28.443Z,1.73
2023-04-11T03:05:31.924Z,1.60
2023-04-11T03:11:35.588Z,1.27
2023-04-11T03:17:40.397Z,1.02
2023-04-11T03:23:44.202Z,1.60
2023-04-11T03:29:48.154Z,1.13
2023-04-11T03:35:52.950Z,0.98
2023-04-11T03:41:56.464Z,1.20
2023-04-11T03:48:00.215Z,1.30
2023-04-11T03:54:05.012Z,1.23
2023-04-11T04:00:09.289Z,1.38
2023-04-11T04:06:12.665Z,1.40
2023-04-11T04:12:18.146Z,1.20
2023-04-11T04:18:21.830Z,0.93
2023-04-11T04:24:26.055Z,1.00
2023-04-11T04:30:30.974Z,1.20
2023-04-11T04:36:34.466Z,1.13
2023-04-11T04:42:41.357Z,1.20
2023-04-11T04:48:46.363Z,1.15
2023-04-11T04:54:49.768Z,1.13
2023-04-11T05:00:56.093Z,1.48
2023-04-11T05:07:01.653Z,1.23
2023-04-11T05:13:05.156Z,1.73
2023-04-11T05:19:08.704Z,1.10
2023-04-11T05:25:13.476Z,1.27
2023-04-11T05:31:17.172Z,1.67
2023-04-11T05:37:21.149Z,1.92
2023-04-11T05:43:25.884Z,1.80
2023-04-11T05:49:29.376Z,1.30
2023-04-11T05:55:32.823Z,1.80
2023-04-11T06:01:39.903Z,1.20
2023-04-11T06:07:43.459Z,1.40
2023-04-11T06:13:46.892Z,1.88
2023-04-11T06:19:51.728Z,1.60
2023-04-11T06:25:55.382Z,1.90
2023-04-11T06:31:59.280Z,1.73
2023-04-11T06:38:04.072Z,1.77
2023-04-11T06:44:07.615Z,1.60
2023-04-11T06:50:11.539Z,1.70
2023-04-11T06:56:16.375Z,1.75
2023-04-11T07:02:20.003Z,2.33
2023-04-11T07:08:23.871Z,1.45
2023-04-11T07:14:28.854Z,1.30
2023-04-11T07:20:32.971Z,1.63
2023-04-11T07:26:38.600Z,1.70
2023-04-11T07:32:43.496Z,1.83
2023-04-11T07:38:46.964Z,1.35
2023-04-11T07:44:50.583Z,1.60
2023-04-11T07:50:55.895Z,1.40
2023-04-11T07:56:59.323Z,1.73
2023-04-11T08:03:04.628Z,1.73
2023-04-11T08:09:14.209Z,1.60
2023-04-11T08:15:17.647Z,1.55
2023-04-11T08:21:21.083Z,1.02
2023-04-11T08:27:25.914Z,1.55
2023-04-11T08:33:29.593Z,1.15
2023-04-11T08:39:32.977Z,1.75
2023-04-11T08:45:37.760Z,1.95
2023-04-11T08:51:43.232Z,1.40
2023-04-11T08:57:46.759Z,1.92
2023-04-11T09:03:52.830Z,1.48
2023-04-11T09:09:56.600Z,1.55
2023-04-11T09:16:07.234Z,1.38
2023-04-11T09:22:12.136Z,1.25
2023-04-11T09:28:15.859Z,1.52
2023-04-11T09:34:26.266Z,1.80
2023-04-11T09:40:32.074Z,1.00
2023-04-11T09:46:36.269Z,1.45
2023-04-11T09:52:41.710Z,1.25
2023-04-11T09:58:47.242Z,1.05
2023-04-11T10:04:51.702Z,1.55
2023-04-11T10:10:56.908Z,1.25
2023-04-11T10:17:15.732Z,1.15
2023-04-11T10:23:20.683Z,1.50
2023-04-11T10:29:52.549Z,1.35
2023-04-11T10:36:02.265Z,0.95
2023-04-11T10:42:20.626Z,1.10
2023-04-11T10:48:24.126Z,1.17
2023-04-11T10:54:30.030Z,1.10
2023-04-11T11:01:00.111Z,1.00
2023-04-11T11:07:05.244Z,0.73
2023-04-11T11:13:10.527Z,1.50
2023-04-11T11:19:15.888Z,1.40
2023-04-11T11:25:21.297Z,0.77
2023-04-11T11:31:36.039Z,1.13
2023-04-11T11:37:39.504Z,0.80
2023-04-11T11:43:42.897Z,1.10
2023-04-11T11:49:48.465Z,1.30
2023-04-11T11:55:52.769Z,1.10
2023-04-11T12:01:56.375Z,1.20
2023-04-11T12:08:02.104Z,1.02
2023-04-11T12:14:05.601Z,1.33
2023-04-11T12:20:11.323Z,1.00
2023-04-11T12:26:17.743Z,1.10
2023-04-11T12:32:21.218Z,0.80
2023-04-11T12:38:24.598Z,1.30
2023-04-11T12:44:29.643Z,1.17
2023-04-11T12:50:33.035Z,0.95
2023-04-11T12:56:36.653Z,1.13
2023-04-11T13:02:44.541Z,1.13
2023-04-11T13:08:52.773Z,1.25
2023-04-11T13:14:57.035Z,1.40
2023-04-11T13:21:02.789Z,1.10
2023-04-11T13:27:06.269Z,1.00
2023-04-11T13:33:09.871Z,1.27
2023-04-11T13:39:14.708Z,0.80
2023-04-11T13:45:19.231Z,1.10
2023-04-11T13:51:22.872Z,1.10
2023-04-11T13:57:28.512Z,0.90
2023-04-11T14:03:33.825Z,0.90
2023-04-11T14:09:37.434Z,1.20
2023-04-11T14:15:42.202Z,1.33
2023-04-11T14:21:45.779Z,0.90
2023-04-11T14:27:49.581Z,1.10
2023-04-11T14:33:55.040Z,0.95
2023-04-11T14:39:58.542Z,1.20
2023-04-11T14:46:01.929Z,0.88
2023-04-11T14:52:06.849Z,1.00
2023-04-11T14:58:10.487Z,1.10
2023-04-11T15:04:14.619Z,1.30
2023-04-11T15:10:20.493Z,1.27
2023-04-11T15:16:23.911Z,1.27
2023-04-11T15:22:27.713Z,1.20
2023-04-11T15:28:35.058Z,1.15
2023-04-11T15:34:40.286Z,1.17
2023-04-11T15:40:43.957Z,1.17
2023-04-11T15:46:49.554Z,1.20
2023-04-11T15:52:53.210Z,1.50
2023-04-11T15:58:56.595Z,1.60
2023-04-11T16:05:02.637Z,2.38
2023-04-11T16:11:06.481Z,1.50
2023-04-11T16:17:10.017Z,1.00
2023-04-11T16:23:14.949Z,1.13
2023-04-11T16:29:18.635Z,1.50
2023-04-11T16:35:22.083Z,1.40
2023-04-11T16:41:26.934Z,1.23
2023-04-11T16:47:30.345Z,1.33
2023-04-11T16:53:33.741Z,1.02
2023-04-11T16:59:38.953Z,1.05
2023-04-11T17:05:43.478Z,1.40
2023-04-11T17:11:46.989Z,1.17
2023-04-11T17:17:51.916Z,1.10
2023-04-11T17:23:55.538Z,1.20
2023-04-11T17:29:58.923Z,0.90
2023-04-11T17:36:05.404Z,1.40
2023-04-11T17:42:08.988Z,1.52
2023-04-11T17:48:12.892Z,2.08
2023-04-11T17:54:17.645Z,1.90
2023-04-11T18:00:23.348Z,2.22
2023-04-11T18:06:28.117Z,1.33
2023-04-11T18:12:33.045Z,1.63
2023-04-11T18:18:36.882Z,1.92
2023-04-11T18:24:40.285Z,1.20
2023-04-11T18:30:45.399Z,1.58
2023-04-11T18:36:49.413Z,1.55
2023-04-11T18:42:55.087Z,1.75
2023-04-11T18:49:00.950Z,1.55
2023-04-11T18:55:04.562Z,2.10
2023-04-11T19:01:15.580Z,1.48
2023-04-11T19:07:21.601Z,1.73
2023-04-11T19:13:25.000Z,2.42
2023-04-11T19:19:28.443Z,2.35
2023-04-11T19:25:33.258Z,3.00
2023-04-11T19:31:36.845Z,2.50
2023-04-11T19:37:40.902Z,2.92
2023-04-11T19:43:46.038Z,2.08
2023-04-11T19:49:49.679Z,2.15
2023-04-11T19:55:53.458Z,2.15
2023-04-11T20:02:01.628Z,3.83
2023-04-11T20:08:05.198Z,1.35
2023-04-11T20:14:09.578Z,1.67
2023-04-11T20:20:15.366Z,1.20
2023-04-11T20:26:19.060Z,2.20
2023-04-11T20:32:22.486Z,2.83
2023-04-11T20:38:27.677Z,2.25
2023-04-11T20:44:31.044Z,1.25
2023-04-11T20:50:34.447Z,1.88
2023-04-11T20:56:39.486Z,1.90
2023-04-11T21:02:44.605Z,1.42
2023-04-11T21:08:48.407Z,1.20
2023-04-11T21:14:53.601Z,1.30
2023-04-11T21:20:57.176Z,1.80
2023-04-11T21:27:01.008Z,1.40
2023-04-11T21:33:06.096Z,1.35
2023-04-11T21:39:10.154Z,1.25
2023-04-11T21:45:13.614Z,1.20
2023-04-11T21:51:18.960Z,1.30
2023-04-11T21:57:22.374Z,1.27
2023-04-11T22:03:26.872Z,1.10
2023-04-11T22:09:33.281Z,1.40
2023-04-11T22:15:38.505Z,1.80
2023-04-11T22:21:41.867Z,1.35
2023-04-11T22:27:46.725Z,1.80
2023-04-11T22:33:50.570Z,1.77
2023-04-11T22:39:54.377Z,1.70
2023-04-11T22:45:59.184Z,2.15
2023-04-11T22:52:02.626Z,1.92
2023-04-11T22:58:06.009Z,2.13
2023-04-11T23:04:11.058Z,1.98
2023-04-11T23:10:15.584Z,1.45
2023-04-11T23:16:19.403Z,2.00
2023-04-11T23:22:24.224Z,2.10
2023-04-11T23:28:27.829Z,1.70
2023-04-11T23:34:31.330Z,1.60
2023-04-11T23:40:36.120Z,1.40
2023-04-11T23:46:39.999Z,1.42
2023-04-11T23:52:43.970Z,1.48
2023-04-11T23:58:48.736Z,1.20
